Time;durP1;ratioP1;P1;durP2;ratioP2;P2;SDS_P1;SDS_P2;PMS_P1;PMS_P2;Temp;Humidity;BMP_temperature;BMP_pressure;BME280_temperature;BME280_humidity;BME280_pressure;Samples;Min_cycle;Max_cycle;Signal;HPM_P1;HPM_P2
2023/09/10 00:01:06;;;;;;;31.20;14.73;;;;;;;26.11;39.72;98725.28;5092178;28;20478;-46
2023/09/10 00:03:32;;;;;;;37.10;15.13;;;;;;;26.03;39.12;98731.38;5092180;28;20027;-45
2023/09/10 00:06:03;;;;;;;12.73;7.13;;;;;;;26.07;38.54;98727.78;5091061;28;20024;-45
2023/09/10 00:08:29;;;;;;;9.13;7.25;;;;;;;26.00;38.95;98722.03;5092058;28;20516;-46
2023/09/10 00:10:58;;;;;;;12.38;6.75;;;;;;;25.96;38.73;98736.38;5092115;28;20024;-45
2023/09/10 00:13:27;;;;;;;18.13;9.77;;;;;;;25.68;39.15;98731.00;5092306;28;20427;-45
2023/09/10 00:15:54;;;;;;;18.67;12.23;;;;;;;25.54;39.52;98727.50;5090531;28;20118;-46
2023/09/10 00:18:20;;;;;;;8.23;6.53;;;;;;;25.37;39.18;98738.81;5091929;28;20578;-45
2023/09/10 00:20:47;;;;;;;19.10;17.05;;;;;;;25.21;40.49;98741.78;5091913;28;20051;-46
2023/09/10 00:23:13;;;;;;;33.35;17.55;;;;;;;25.30;40.80;98733.84;5090573;28;20024;-46
2023/09/10 00:25:39;;;;;;;14.45;7.63;;;;;;;25.49;40.13;98736.44;5091836;28;20024;-45
2023/09/10 00:28:05;;;;;;;19.92;10.02;;;;;;;25.43;39.43;98734.94;5090542;28;20125;-45
2023/09/10 00:30:31;;;;;;;16.70;7.70;;;;;;;25.41;39.27;98727.19;5090635;28;20028;-45
2023/09/10 00:32:57;;;;;;;12.02;5.80;;;;;;;25.33;39.44;98732.44;5091821;28;20062;-45
2023/09/10 00:35:22;;;;;;;20.13;6.45;;;;;;;25.27;39.42;98735.25;5091823;28;20028;-45
2023/09/10 00:37:48;;;;;;;16.30;6.70;;;;;;;25.26;39.63;98735.53;5091793;28;20051;-45
2023/09/10 00:40:14;;;;;;;19.92;7.13;;;;;;;25.40;40.00;98724.81;5091082;28;20032;-45
2023/09/10 00:42:40;;;;;;;25.77;8.02;;;;;;;25.50;39.43;98732.69;5095965;28;20114;-46
2023/09/10 00:45:07;;;;;;;27.73;7.97;;;;;;;25.60;39.09;98740.53;5095799;28;20077;-45
2023/09/10 00:47:35;;;;;;;10.07;5.63;;;;;;;25.45;38.65;98732.75;5094867;28;20039;-45
2023/09/10 00:50:01;;;;;;;12.02;5.75;;;;;;;25.08;39.26;98737.16;5077680;28;20032;-45
2023/09/10 00:52:29;;;;;;;9.68;4.85;;;;;;;24.86;39.57;98735.88;5094419;28;20394;-45
2023/09/10 00:54:55;;;;;;;13.00;5.40;;;;;;;24.68;40.07;98744.75;5095770;28;20020;-45
2023/09/10 00:57:21;;;;;;;12.05;4.80;;;;;;;24.61;40.37;98739.78;5095672;28;20020;-45
2023/09/10 00:59:47;;;;;;;10.02;6.50;;;;;;;24.44;40.67;98732.19;5094314;28;20036;-45
2023/09/10 01:02:15;;;;;;;7.18;5.30;;;;;;;24.33;40.82;98730.75;5094235;28;20031;-45
2023/09/10 01:04:41;;;;;;;7.80;5.18;;;;;;;24.30;41.06;98736.69;5095818;28;20109;-45
2023/09/10 01:07:07;;;;;;;8.60;5.18;;;;;;;24.24;41.06;98748.56;5094286;28;20046;-45
2023/09/10 01:09:33;;;;;;;7.30;5.20;;;;;;;24.17;41.29;98734.75;5094392;28;20149;-45
2023/09/10 01:12:24;;;;;;;14.45;7.15;;;;;;;24.19;41.66;98741.41;5094116;28;20586;-45
2023/09/10 01:15:14;;;;;;;7.60;5.43;;;;;;;24.43;41.04;98740.56;5095098;28;20489;-46
2023/09/10 01:17:51;;;;;;;10.75;4.97;;;;;;;24.37;40.93;98745.19;5094306;28;20111;-45
2023/09/10 01:20:59;;;;;;;7.00;5.15;;;;;;;24.24;41.15;98735.97;5094307;28;20063;-45
2023/09/10 01:23:57;;;;;;;10.70;6.70;;;;;;;24.12;42.00;98739.06;5095091;28;20032;-45
2023/09/10 01:26:23;;;;;;;11.85;5.20;;;;;;;24.07;41.62;98736.47;5094180;28;20122;-45
2023/09/10 01:28:49;;;;;;;6.88;6.05;;;;;;;24.08;41.91;98745.28;5095281;28;20570;-45
2023/09/10 01:31:14;;;;;;;11.77;5.55;;;;;;;24.21;41.91;98747.28;5095007;28;20024;-45
2023/09/10 01:33:56;;;;;;;7.10;5.05;;;;;;;24.04;42.02;98746.94;5095020;28;20020;-45
2023/09/10 01:36:38;;;;;;;11.60;5.65;;;;;;;23.98;43.47;98748.09;5094984;28;20031;-45
2023/09/10 01:39:27;;;;;;;7.82;5.03;;;;;;;23.91;42.42;98748.47;5093512;28;20432;-45
2023/09/10 01:41:55;;;;;;;9.73;6.05;;;;;;;23.92;43.67;98752.72;5093821;28;20028;-45
2023/09/10 01:44:23;;;;;;;18.75;6.53;;;;;;;24.27;43.48;98756.84;5094764;28;20036;-45
2023/09/10 01:46:50;;;;;;;10.77;5.72;;;;;;;24.60;43.05;98754.28;5094671;28;20064;-45
2023/09/10 01:49:17;;;;;;;17.58;7.50;;;;;;;24.66;42.79;98755.00;5094663;28;20028;-45
2023/09/10 01:51:42;;;;;;;14.77;7.10;;;;;;;24.61;42.61;98749.69;5092105;28;20044;-45
2023/09/10 01:54:08;;;;;;;12.52;6.75;;;;;;;24.61;42.53;98750.50;5093121;28;20032;-45
2023/09/10 01:56:33;;;;;;;13.35;7.38;;;;;;;24.39;42.62;98748.38;5094581;28;20440;-45
2023/09/10 01:58:59;;;;;;;7.40;4.85;;;;;;;24.19;42.52;98749.44;5093181;28;20058;-45
2023/09/10 02:01:25;;;;;;;10.82;6.47;;;;;;;24.03;43.41;98748.06;5093113;28;20086;-45
2023/09/10 02:03:50;;;;;;;8.63;6.20;;;;;;;24.09;43.14;98750.38;5093048;28;20032;-45
2023/09/10 02:06:16;;;;;;;14.52;6.65;;;;;;;24.14;43.48;98752.19;5092995;28;20394;-45
2023/09/10 02:08:41;;;;;;;11.68;7.95;;;;;;;24.11;43.96;98752.78;5094268;28;20056;-45
2023/09/10 02:11:07;;;;;;;18.13;12.60;;;;;;;24.21;44.26;98747.28;5094137;28;20028;-45
2023/09/10 02:13:33;;;;;;;8.93;5.95;;;;;;;24.11;43.08;98750.88;5094236;28;20363;-45
2023/09/10 02:15:59;;;;;;;7.30;5.72;;;;;;;23.93;43.47;98751.66;5093868;28;20044;-45
2023/09/10 02:18:25;;;;;;;11.25;5.93;;;;;;;23.80;43.64;98746.97;5094178;28;20016;-45
2023/09/10 02:20:51;;;;;;;20.85;13.65;;;;;;;23.84;44.77;98758.72;5093098;28;20032;-45
2023/09/10 02:23:17;;;;;;;9.85;8.07;;;;;;;23.96;44.70;98753.75;5092800;28;20447;-45
2023/09/10 02:25:42;;;;;;;63.92;22.75;;;;;;;23.82;45.18;98750.97;5094002;28;20572;-45
2023/09/10 02:28:08;;;;;;;39.38;18.52;;;;;;;23.70;45.47;98754.03;5093897;28;20020;-45
2023/09/10 02:30:34;;;;;;;19.63;10.45;;;;;;;23.46;45.52;98759.38;5093952;28;20380;-45
2023/09/10 02:32:59;;;;;;;10.88;6.68;;;;;;;23.43;46.34;98759.94;5092525;28;20043;-45
2023/09/10 02:35:25;;;;;;;13.73;7.72;;;;;;;23.29;46.31;98757.09;5092502;28;20024;-45
2023/09/10 02:37:50;;;;;;;10.55;5.93;;;;;;;23.33;46.38;98763.50;5092743;28;20020;-45
2023/09/10 02:40:16;;;;;;;21.33;9.25;;;;;;;23.27;46.67;98759.25;5093697;28;20367;-45
2023/09/10 02:42:42;;;;;;;8.73;6.05;;;;;;;23.17;45.98;98764.72;5093657;28;20021;-45
2023/09/10 02:45:08;;;;;;;11.60;7.72;;;;;;;22.91;46.36;98759.53;5093612;28;20028;-45
2023/09/10 02:47:34;;;;;;;10.90;7.95;;;;;;;22.90;46.68;98760.63;5093576;28;20042;-45
2023/09/10 02:49:59;;;;;;;8.57;7.20;;;;;;;23.03;46.89;98766.44;5093466;28;20545;-45
2023/09/10 02:52:26;;;;;;;9.80;6.80;;;;;;;23.03;47.51;98766.44;5092529;28;20659;-45
2023/09/10 02:54:51;;;;;;;12.98;7.07;;;;;;;23.05;47.86;98767.75;5093473;28;20099;-45
2023/09/10 02:57:17;;;;;;;11.38;7.68;;;;;;;23.09;47.51;98778.72;5092149;28;20103;-45
2023/09/10 02:59:43;;;;;;;8.45;7.05;;;;;;;23.15;47.55;98769.56;5092296;28;20396;-45
2023/09/10 03:02:09;;;;;;;11.05;7.13;;;;;;;23.13;47.10;98766.34;5093295;28;20027;-45
2023/09/10 03:04:35;;;;;;;17.20;8.07;;;;;;;23.09;47.76;98762.66;5091608;28;20032;-45
2023/09/10 03:07:01;;;;;;;24.80;8.95;;;;;;;23.00;47.84;98766.97;5091983;28;20493;-45
2023/09/10 03:09:27;;;;;;;9.65;6.95;;;;;;;23.03;48.12;98769.13;5091821;28;20035;-45
2023/09/10 03:11:53;;;;;;;21.85;10.15;;;;;;;22.70;48.44;98764.25;5093143;28;20017;-45
2023/09/10 03:14:19;;;;;;;11.63;7.03;;;;;;;22.49;48.73;98774.25;5092158;28;20020;-45
2023/09/10 03:16:45;;;;;;;9.38;7.60;;;;;;;22.41;48.96;98774.03;5091515;28;20070;-45
2023/09/10 03:19:11;;;;;;;29.85;14.93;;;;;;;22.16;49.75;98773.06;5092992;28;20024;-45
2023/09/10 03:21:37;;;;;;;20.50;11.75;;;;;;;22.10;50.29;98777.63;5092892;28;20032;-45
2023/09/10 03:24:04;;;;;;;16.92;9.57;;;;;;;21.88;50.89;98798.56;5093098;28;20064;-45
2023/09/10 03:26:30;;;;;;;8.70;7.88;;;;;;;21.78;51.42;98791.38;5091809;28;20020;-45
2023/09/10 03:28:55;;;;;;;14.50;11.60;;;;;;;21.63;52.15;98794.88;5092729;28;20037;-45
2023/09/10 03:31:21;;;;;;;34.33;22.52;;;;;;;21.54;52.27;98785.81;5092770;28;20520;-45
2023/09/10 03:33:48;;;;;;;17.02;13.45;;;;;;;21.61;52.96;98789.00;5092749;28;20024;-45
2023/09/10 03:36:13;;;;;;;13.65;9.18;;;;;;;21.57;52.57;98787.97;5091316;28;20024;-45
2023/09/10 03:38:39;;;;;;;8.77;7.90;;;;;;;21.58;52.28;98794.88;5091313;28;20032;-45
2023/09/10 03:41:05;;;;;;;16.20;9.80;;;;;;;21.39;53.08;98788.47;5092633;28;20393;-45
2023/09/10 03:43:30;;;;;;;11.00;9.90;;;;;;;21.27;53.37;98791.41;5091232;28;20052;-45
2023/09/10 03:45:57;;;;;;;13.82;8.10;;;;;;;21.04;53.87;98785.53;5092487;28;20032;-45
2023/09/10 03:48:22;;;;;;;9.77;7.32;;;;;;;20.88;54.33;98787.38;5092416;28;20031;-45
2023/09/10 03:50:49;;;;;;;8.50;7.70;;;;;;;20.78;54.71;98783.91;5092422;28;20036;-45
2023/09/10 03:53:14;;;;;;;16.15;8.52;;;;;;;20.72;54.98;98786.56;5092401;28;20093;-45
2023/09/10 03:55:41;;;;;;;17.83;8.82;;;;;;;20.79;55.08;98788.19;5092265;28;20066;-45
2023/09/10 03:58:06;;;;;;;25.23;10.68;;;;;;;20.88;54.93;98787.38;5092538;28;20020;-45
2023/09/10 04:00:33;;;;;;;16.92;9.18;;;;;;;20.88;55.04;98782.06;5090953;28;20513;-45
2023/09/10 04:02:59;;;;;;;11.60;8.32;;;;;;;20.85;55.05;98773.81;5092264;28;20094;-45
2023/09/10 04:05:25;;;;;;;22.15;13.10;;;;;;;20.85;55.11;98779.13;5092208;28;20482;-45
2023/09/10 04:07:50;;;;;;;18.48;11.32;;;;;;;20.86;55.36;98786.84;5092006;28;20035;-45
2023/09/10 04:10:16;;;;;;;15.52;10.02;;;;;;;20.79;55.37;98789.00;5092361;28;20026;-45
2023/09/10 04:12:42;;;;;;;13.05;9.20;;;;;;;20.79;55.91;98785.53;5092087;28;20486;-45
2023/09/10 04:15:08;;;;;;;11.65;8.13;;;;;;;20.70;55.70;98787.91;5090890;28;20040;-45
2023/09/10 04:17:34;;;;;;;10.38;7.75;;;;;;;20.65;55.90;98791.38;5090946;28;20028;-45
2023/09/10 04:19:59;;;;;;;12.55;10.10;;;;;;;20.56;56.40;98798.22;5092006;28;20081;-45
2023/09/10 04:22:26;;;;;;;33.40;19.73;;;;;;;20.52;56.85;98802.50;5090910;28;20039;-45
2023/09/10 04:24:52;;;;;;;17.75;11.25;;;;;;;20.61;57.16;98803.63;5090594;28;20505;-45
2023/09/10 04:27:18;;;;;;;16.55;10.90;;;;;;;20.67;56.65;98799.91;5091928;28;20016;-45
2023/09/10 04:29:44;;;;;;;59.42;16.95;;;;;;;20.74;56.91;98804.97;5091687;28;20031;-45
2023/09/10 04:32:09;;;;;;;18.13;10.35;;;;;;;20.81;56.37;98808.19;5090531;28;20070;-45
2023/09/10 04:34:35;;;;;;;23.35;10.70;;;;;;;20.88;56.46;98802.59;5090823;28;20028;-45
2023/09/10 04:37:03;;;;;;;13.20;8.80;;;;;;;20.92;56.10;98809.00;5092037;28;20481;-45
2023/09/10 04:39:29;;;;;;;9.40;8.05;;;;;;;20.82;56.12;98811.66;5091794;28;20052;-45
2023/09/10 04:41:54;;;;;;;12.30;9.35;;;;;;;20.61;56.54;98810.84;5091799;28;20515;-45
2023/09/10 04:44:20;;;;;;;9.70;8.70;;;;;;;20.48;56.74;98806.75;5091725;28;20062;-45
2023/09/10 04:46:46;;;;;;;17.42;9.48;;;;;;;20.33;56.91;98816.28;5091739;28;20052;-45
2023/09/10 04:49:12;;;;;;;15.85;8.82;;;;;;;20.24;57.46;98815.22;5091938;28;20020;-45
2023/09/10 04:51:37;;;;;;;10.55;9.45;;;;;;;20.13;57.84;98811.69;5090301;28;20111;-45
2023/09/10 04:54:03;;;;;;;10.00;9.00;;;;;;;20.08;58.36;98814.34;5090426;28;20012;-45
2023/09/10 04:56:29;;;;;;;8.55;7.65;;;;;;;20.19;58.53;98817.06;5090282;28;20055;-45
2023/09/10 04:58:55;;;;;;;8.88;7.50;;;;;;;20.24;58.06;98817.06;5091593;28;20020;-45
2023/09/10 05:01:21;;;;;;;9.88;7.43;;;;;;;20.18;58.13;98816.22;5091623;28;20389;-45
2023/09/10 05:03:46;;;;;;;7.80;7.15;;;;;;;20.16;57.91;98818.34;5091579;28;20479;-45
2023/09/10 05:06:13;;;;;;;8.18;7.10;;;;;;;20.09;57.88;98826.59;5091457;28;20028;-45
2023/09/10 05:08:38;;;;;;;9.82;8.07;;;;;;;20.00;58.00;98822.81;5091711;28;20416;-45
2023/09/10 05:11:04;;;;;;;8.48;7.68;;;;;;;19.92;58.04;98821.44;5090311;28;20027;-45
2023/09/10 05:13:30;;;;;;;12.95;7.63;;;;;;;19.89;58.26;98829.16;5091486;28;20024;-45
2023/09/10 05:15:57;;;;;;;12.15;7.90;;;;;;;19.82;58.37;98826.72;5091218;28;20050;-45
2023/09/10 05:18:24;;;;;;;13.32;7.65;;;;;;;19.79;58.66;98821.09;5091401;28;20031;-45
2023/09/10 05:20:52;;;;;;;10.00;7.50;;;;;;;19.82;58.77;98826.72;5091615;28;20028;-45
2023/09/10 05:23:22;;;;;;;11.88;8.43;;;;;;;19.80;58.89;98833.34;5091360;28;20020;-45
2023/09/10 05:25:49;;;;;;;10.93;8.18;;;;;;;19.73;59.33;98834.38;5091348;28;20043;-45
2023/09/10 05:28:15;;;;;;;13.73;7.45;;;;;;;19.90;59.36;98833.41;5095089;28;20104;-45
2023/09/10 05:30:41;;;;;;;8.15;7.43;;;;;;;20.33;58.64;98832.28;5095082;28;20123;-45
2023/09/10 05:33:06;;;;;;;8.32;7.53;;;;;;;20.81;57.42;98842.09;5095003;28;20028;-45
2023/09/10 05:35:32;;;;;;;9.07;8.20;;;;;;;21.31;56.39;98840.53;5095051;28;20047;-45
2023/09/10 05:37:58;;;;;;;11.50;7.45;;;;;;;21.83;54.84;98841.31;5094973;28;20016;-44
2023/09/10 05:40:25;;;;;;;9.73;7.75;;;;;;;22.40;53.23;98839.31;5094892;28;20110;-45
2023/09/10 05:42:51;;;;;;;8.25;7.30;;;;;;;22.98;51.57;98854.78;5094815;28;20055;-45
2023/09/10 05:45:16;;;;;;;11.98;7.75;;;;;;;23.56;50.12;98854.88;5094844;28;20024;-45
2023/09/10 05:47:42;;;;;;;13.88;7.82;;;;;;;24.11;48.57;98852.00;5094735;28;20031;-45
2023/09/10 05:50:08;;;;;;;21.20;7.88;;;;;;;24.63;46.85;98857.53;5093356;28;20028;-45
2023/09/10 05:52:34;;;;;;;7.95;6.82;;;;;;;25.03;45.73;98855.38;5093331;28;20031;-45
2023/09/10 05:54:59;;;;;;;14.80;8.60;;;;;;;25.43;44.50;98855.88;5094640;28;20024;-45
2023/09/10 05:57:25;;;;;;;13.60;9.48;;;;;;;25.81;43.44;98855.75;5093403;28;20012;-45
2023/09/10 05:59:51;;;;;;;10.90;9.23;;;;;;;26.17;42.67;98845.16;5094546;28;20028;-45
2023/09/10 06:02:16;;;;;;;10.68;8.88;;;;;;;26.41;41.71;98852.22;5093199;28;20509;-45
2023/09/10 06:04:42;;;;;;;10.23;9.13;;;;;;;26.49;41.46;98848.81;5094441;28;20026;-45
2023/09/10 06:07:08;;;;;;;12.85;8.60;;;;;;;26.42;41.61;98854.59;5094397;28;20095;-45
2023/09/10 06:09:33;;;;;;;10.73;6.90;;;;;;;26.30;41.88;98852.41;5094270;28;20016;-45
2023/09/10 06:12:02;;;;;;;8.98;7.32;;;;;;;26.13;42.05;98854.91;5093469;28;20512;-45
2023/09/10 06:14:30;;;;;;;11.35;7.25;;;;;;;25.94;41.99;98852.31;5094213;28;20022;-45
2023/09/10 06:16:59;;;;;;;8.98;6.60;;;;;;;25.74;42.53;98849.97;5093934;28;20069;-45
2023/09/10 06:19:24;;;;;;;10.68;6.13;;;;;;;25.53;43.19;98861.06;5094179;28;20391;-45
2023/09/10 06:21:50;;;;;;;6.70;6.07;;;;;;;25.40;43.42;98848.41;5092804;28;20035;-45
2023/09/10 06:24:16;;;;;;;15.13;6.05;;;;;;;25.50;43.26;98858.97;5092923;28;20054;-45
2023/09/10 06:26:42;;;;;;;8.35;6.55;;;;;;;25.69;43.07;98848.16;5093964;28;20485;-45
2023/09/10 06:29:07;;;;;;;10.00;5.97;;;;;;;25.76;42.16;98863.91;5093953;28;20102;-45
2023/09/10 06:31:33;;;;;;;15.20;7.82;;;;;;;25.78;42.63;98853.66;5092601;28;20569;-45
2023/09/10 06:33:59;;;;;;;11.68;6.57;;;;;;;25.92;42.21;98849.13;5092897;28;20394;-45
2023/09/10 06:36:25;;;;;;;14.82;8.10;;;;;;;26.27;41.49;98852.22;5093762;28;20497;-45
2023/09/10 06:38:51;;;;;;;32.50;18.63;;;;;;;26.69;40.93;98850.31;5093048;28;20024;-45
2023/09/10 06:41:17;;;;;;;33.08;19.65;;;;;;;27.39;39.41;98850.88;5092410;28;20035;-45
2023/09/10 06:43:44;;;;;;;24.35;13.57;;;;;;;28.21;37.75;98852.25;5092345;28;20021;-45
2023/09/10 06:46:10;;;;;;;17.60;11.52;;;;;;;29.01;35.94;98845.84;5093692;28;20020;-45
2023/09/10 06:48:36;;;;;;;35.30;20.45;;;;;;;29.62;34.98;98848.47;5092173;28;20028;-45
2023/09/10 06:51:02;;;;;;;17.67;8.95;;;;;;;30.19;33.82;98845.41;5093559;28;20020;-45
2023/09/10 06:53:28;;;;;;;50.92;22.50;;;;;;;30.63;33.54;98843.25;5092215;28;20138;-45
2023/09/10 06:55:54;;;;;;;13.77;7.80;;;;;;;30.95;32.60;98849.09;5093348;28;20382;-45
2023/09/10 06:58:20;;;;;;;10.35;5.75;;;;;;;31.14;32.35;98847.81;5093399;28;20461;-45
2023/09/10 07:00:46;;;;;;;10.27;5.72;;;;;;;31.10;32.20;98838.78;5093328;28;20034;-45
2023/09/10 07:03:13;;;;;;;11.57;7.15;;;;;;;31.40;31.60;98834.78;5092061;28;20016;-46
2023/09/10 07:05:40;;;;;;;14.88;7.55;;;;;;;31.57;31.50;98839.28;5093208;28;20097;-45
2023/09/10 07:08:07;;;;;;;19.90;8.88;;;;;;;31.91;31.15;98839.19;5093405;28;20436;-46
2023/09/10 07:10:33;;;;;;;10.13;7.30;;;;;;;32.31;30.33;98835.81;5093381;28;20028;-46
2023/09/10 07:12:59;;;;;;;21.60;13.35;;;;;;;32.63;29.93;98842.25;5093083;28;20441;-46
2023/09/10 07:15:25;;;;;;;33.70;18.48;;;;;;;32.98;29.80;98828.06;5092772;28;20035;-46
2023/09/10 07:17:51;;;;;;;24.88;14.73;;;;;;;33.27;29.01;98839.78;5091728;28;20024;-46
2023/09/10 07:20:17;;;;;;;11.82;6.82;;;;;;;33.62;28.88;98835.28;5091628;28;20035;-46
2023/09/10 07:22:42;;;;;;;11.05;5.85;;;;;;;33.94;28.26;98832.53;5092922;28;20024;-46
2023/09/10 07:25:08;;;;;;;55.00;7.85;;;;;;;34.16;27.92;98827.63;5091857;28;20031;-46
2023/09/10 07:27:34;;;;;;;17.65;5.20;;;;;;;34.29;27.88;98829.09;5091485;28;20050;-46
2023/09/10 07:29:59;;;;;;;17.73;5.28;;;;;;;34.33;27.57;98827.25;5092765;28;20020;-46
2023/09/10 07:32:25;;;;;;;20.63;6.18;;;;;;;34.64;27.59;98830.22;5091758;28;20027;-46
2023/09/10 07:34:51;;;;;;;23.45;6.93;;;;;;;34.86;27.29;98831.47;5091765;28;20024;-46
2023/09/10 07:37:16;;;;;;;25.10;7.57;;;;;;;35.07;26.82;98831.09;5092638;28;20035;-46
2023/09/10 07:39:43;;;;;;;38.88;7.78;;;;;;;35.23;26.57;98828.31;5091354;28;20035;-46
2023/09/10 07:42:08;;;;;;;42.28;9.45;;;;;;;35.25;26.72;98836.91;5092471;28;20103;-46
2023/09/10 07:44:34;;;;;;;20.00;5.85;;;;;;;35.39;26.69;98834.44;5091498;28;20106;-46
2023/09/10 07:47:00;;;;;;;14.13;5.60;;;;;;;35.52;26.78;98830.38;5091243;28;20024;-46
2023/09/10 07:49:25;;;;;;;11.73;5.75;;;;;;;35.74;26.96;98838.97;5092352;28;20035;-46
2023/09/10 07:51:51;;;;;;;9.35;5.20;;;;;;;35.93;26.79;98838.09;5092453;28;20024;-46
2023/09/10 07:54:17;;;;;;;10.32;6.28;;;;;;;36.18;26.31;98827.56;5092373;28;20020;-46
2023/09/10 07:56:43;;;;;;;8.80;5.45;;;;;;;36.37;26.27;98830.19;5092381;28;20439;-46
2023/09/10 07:59:11;;;;;;;12.25;5.70;;;;;;;36.45;25.94;98820.13;5092442;28;20485;-46
2023/09/10 08:01:38;;;;;;;7.05;5.03;;;;;;;36.61;25.88;98824.63;5090994;28;20028;-46
2023/09/10 08:04:04;;;;;;;12.00;5.85;;;;;;;36.81;25.86;98819.81;5090941;28;20051;-46
2023/09/10 08:06:29;;;;;;;7.97;5.20;;;;;;;37.18;25.42;98820.63;5090972;28;20073;-46
2023/09/10 08:08:55;;;;;;;5.82;5.22;;;;;;;37.65;25.59;98821.09;5091123;28;20513;-46
2023/09/10 08:11:21;;;;;;;8.00;5.10;;;;;;;38.10;24.49;98829.28;5092123;28;20038;-46
2023/09/10 08:13:46;;;;;;;5.28;4.78;;;;;;;38.41;24.81;98821.59;5092391;28;20024;-47
2023/09/10 08:16:13;;;;;;;8.70;5.30;;;;;;;38.91;24.22;98827.31;5091768;28;20036;-46
2023/09/10 08:18:42;;;;;;;6.07;4.95;;;;;;;38.93;23.88;98828.50;5092028;28;20027;-46
2023/09/10 08:21:07;;;;;;;5.80;5.25;;;;;;;38.76;24.02;98837.47;5090729;28;20024;-47
2023/09/10 08:23:33;;;;;;;6.60;5.30;;;;;;;38.45;24.45;98836.91;5090674;28;20039;-47
2023/09/10 08:25:59;;;;;;;5.45;4.95;;;;;;;38.39;24.37;98832.19;5091969;28;20016;-47
2023/09/10 08:28:24;;;;;;;8.25;5.07;;;;;;;38.69;23.72;98837.44;5091848;28;20028;-47
2023/09/10 08:30:51;;;;;;;10.27;5.70;;;;;;;38.78;23.90;98831.59;5091949;28;20048;-47
2023/09/10 08:33:17;;;;;;;8.63;5.03;;;;;;;38.86;23.52;98833.97;5091851;28;20024;-46
2023/09/10 08:35:51;;;;;;;7.18;5.00;;;;;;;39.05;23.91;98841.09;5091841;28;20074;-46
2023/09/10 08:38:17;;;;;;;8.02;5.03;;;;;;;39.17;23.34;98837.22;5091930;28;20043;-46
2023/09/10 08:40:58;;;;;;;7.55;4.75;;;;;;;39.12;23.52;98834.84;5090462;28;20020;-46
2023/09/10 08:43:45;;;;;;;8.10;4.72;;;;;;;39.19;23.63;98831.34;5091830;28;20501;-47
2023/09/10 08:46:10;;;;;;;8.95;4.30;;;;;;;39.31;23.59;98829.00;5091783;28;20537;-47
2023/09/10 08:48:41;;;;;;;7.60;4.38;;;;;;;39.46;23.07;98829.03;5091661;28;20111;-47
2023/09/10 08:51:09;;;;;;;7.00;4.88;;;;;;;39.80;22.73;98832.19;5090689;28;20367;-47
2023/09/10 08:53:40;;;;;;;7.32;4.25;;;;;;;39.49;22.73;98831.00;5090488;28;20572;-46
2023/09/10 08:56:08;;;;;;;8.38;4.63;;;;;;;39.37;23.12;98831.38;5091643;28;20100;-47
2023/09/10 08:58:37;;;;;;;6.85;4.40;;;;;;;39.79;22.49;98833.38;5091621;28;20496;-47
2023/09/10 09:01:04;;;;;;;4.30;3.78;;;;;;;40.42;21.00;98821.91;5090617;28;20024;-47
2023/09/10 09:03:30;;;;;;;19.63;5.10;;;;;;;40.79;20.69;98826.91;5095601;28;20077;-47
2023/09/10 09:06:02;;;;;;;48.28;8.60;;;;;;;41.41;20.35;98825.31;5094505;28;20024;-47
2023/09/10 09:08:33;;;;;;;19.88;6.10;;;;;;;41.52;20.54;98817.78;5094297;28;20024;-47
2023/09/10 09:11:05;;;;;;;33.67;6.80;;;;;;;41.74;20.09;98820.38;5095505;28;20430;-47
2023/09/10 09:13:37;;;;;;;8.20;5.32;;;;;;;41.60;18.97;98818.53;5095528;28;20071;-47
2023/09/10 09:16:04;;;;;;;5.93;3.55;;;;;;;41.02;18.26;98817.31;5095064;28;20498;-46
2023/09/10 09:18:31;;;;;;;4.75;3.70;;;;;;;40.22;18.30;98816.81;5095326;28;20507;-47
2023/09/10 09:21:02;;;;;;;8.95;4.38;;;;;;;39.49;18.45;98815.31;5095271;28;20016;-46
2023/09/10 09:23:43;;;;;;;7.38;3.95;;;;;;;39.00;19.07;98808.56;5093982;28;20036;-47
2023/09/10 09:26:10;;;;;;;7.15;4.68;;;;;;;39.49;19.17;98804.31;5095259;28;20509;-46
2023/09/10 09:28:38;;;;;;;5.20;3.90;;;;;;;39.91;18.87;98811.00;5095092;28;20043;-46
2023/09/10 09:31:09;;;;;;;6.68;4.15;;;;;;;40.31;18.69;98800.72;5093843;28;20439;-46
2023/09/10 09:33:36;;;;;;;12.63;4.20;;;;;;;40.87;17.71;98797.34;5095114;28;20504;-47
2023/09/10 09:36:06;;;;;;;28.98;7.32;;;;;;;41.37;17.94;98799.78;5094997;28;20028;-47
2023/09/10 09:38:32;;;;;;;8.20;4.50;;;;;;;41.97;17.58;98789.41;5094964;28;20501;-47
2023/09/10 09:41:02;;;;;;;6.45;4.05;;;;;;;42.21;16.34;98790.38;5094963;28;20051;-47
2023/09/10 09:43:28;;;;;;;6.30;3.70;;;;;;;41.16;17.12;98797.19;5093629;28;20036;-47
2023/09/10 09:45:54;;;;;;;17.40;5.22;;;;;;;40.88;17.48;98785.94;5093567;28;20028;-46
2023/09/10 09:48:20;;;;;;;5.68;4.15;;;;;;;41.06;17.53;98794.09;5094971;28;20028;-47
2023/09/10 09:50:46;;;;;;;5.40;3.88;;;;;;;41.58;17.17;98798.06;5094780;28;20432;-47
2023/09/10 09:53:12;;;;;;;12.23;5.63;;;;;;;41.90;16.67;98793.03;5094596;28;20020;-47
2023/09/10 09:55:38;;;;;;;12.23;4.53;;;;;;;42.13;16.63;98788.13;5094606;28;20144;-47
2023/09/10 09:58:07;;;;;;;4.60;3.97;;;;;;;42.01;16.49;98792.91;5094631;28;20428;-47
2023/09/10 10:00:34;;;;;;;7.60;3.75;;;;;;;41.94;16.64;98787.50;5094719;28;20031;-47
2023/09/10 10:03:00;;;;;;;6.85;3.53;;;;;;;42.34;16.35;98776.03;5094789;28;20097;-47
2023/09/10 10:05:26;;;;;;;8.73;3.78;;;;;;;42.84;16.24;98775.41;5093054;28;20489;-47
2023/09/10 10:07:52;;;;;;;10.18;4.80;;;;;;;43.41;16.18;98774.56;5094434;28;20497;-47
2023/09/10 10:10:19;;;;;;;24.45;5.45;;;;;;;43.53;16.01;98764.09;5094307;28;20032;-47
2023/09/10 10:12:45;;;;;;;14.88;4.78;;;;;;;43.57;16.20;98762.84;5093266;28;20042;-47
2023/09/10 10:15:12;;;;;;;6.25;3.58;;;;;;;43.41;15.46;98763.50;5097460;28;20036;-47
2023/09/10 10:17:42;;;;;;;5.93;3.55;;;;;;;43.02;15.85;98767.66;5094321;28;20508;-47
2023/09/10 10:20:09;;;;;;;5.25;3.70;;;;;;;42.88;15.98;98759.59;5094223;28;20039;-47
2023/09/10 10:22:35;;;;;;;4.75;3.35;;;;;;;42.79;15.90;98760.09;5094258;28;20021;-47
2023/09/10 10:25:04;;;;;;;3.75;3.40;;;;;;;42.75;15.72;98761.34;5094073;28;20036;-47
2023/09/10 10:27:35;;;;;;;5.15;3.72;;;;;;;42.44;15.83;98753.88;5093932;28;20078;-47
2023/09/10 10:30:02;;;;;;;5.65;3.85;;;;;;;42.43;16.29;98749.50;5092650;28;20410;-47
2023/09/10 10:32:39;;;;;;;7.28;4.53;;;;;;;42.80;16.34;98758.09;5093940;28;20027;-47
2023/09/10 10:35:06;;;;;;;8.35;3.97;;;;;;;43.36;15.74;98749.41;5093938;28;20160;-47
2023/09/10 10:38:02;;;;;;;5.43;3.47;;;;;;;43.04;15.07;98754.19;5093832;28;20028;-46
2023/09/10 10:40:33;;;;;;;4.22;3.50;;;;;;;42.81;15.55;98754.16;5094028;28;20042;-47
2023/09/10 10:43:22;;;;;;;4.40;3.20;;;;;;;42.51;15.43;98744.72;5092638;28;20039;-48
2023/09/10 10:45:49;;;;;;;4.03;3.63;;;;;;;42.46;15.99;98740.44;5094047;28;20028;-48
2023/09/10 10:48:20;;;;;;;5.25;3.83;;;;;;;42.35;15.90;98744.50;5093568;28;20084;-48
2023/09/10 10:50:48;;;;;;;4.35;3.17;;;;;;;42.25;15.76;98735.16;5093709;28;20540;-49
2023/09/10 10:53:23;;;;;;;4.40;3.35;;;;;;;41.99;15.95;98736.63;5092195;28;20034;-49
2023/09/10 10:55:52;;;;;;;4.30;3.33;;;;;;;41.70;16.14;98726.69;5093477;28;20065;-48
2023/09/10 10:58:20;;;;;;;6.13;3.10;;;;;;;41.39;16.02;98723.03;5093374;28;20101;-49
2023/09/10 11:00:54;;;;;;;4.80;3.58;;;;;;;41.41;15.84;98726.16;5093313;28;20027;-49
2023/09/10 11:03:21;;;;;;;4.32;3.75;;;;;;;41.47;16.49;98730.03;5093299;28;20035;-49
2023/09/10 11:05:57;;;;;;;3.97;3.63;;;;;;;41.56;16.71;98721.31;5093240;28;20093;-48
2023/09/10 11:08:31;;;;;;;5.07;3.80;;;;;;;41.13;16.74;98716.94;5093480;28;20036;-49
2023/09/10 11:10:58;;;;;;;5.43;3.95;;;;;;;40.61;17.57;98716.09;5091819;28;20081;-48
2023/09/10 11:13:24;;;;;;;6.28;3.83;;;;;;;40.87;17.72;98710.06;5091828;28;20109;-49
2023/09/10 11:16:04;;;;;;;4.25;3.45;;;;;;;41.27;17.15;98718.81;5091787;28;20216;-49
2023/09/10 11:18:39;;;;;;;4.90;3.33;;;;;;;40.81;17.41;98714.44;5093598;28;20589;-49
2023/09/10 11:21:10;;;;;;;3.85;3.50;;;;;;;40.66;17.41;98707.41;5093045;28;20409;-48
2023/09/10 11:23:38;;;;;;;3.78;3.47;;;;;;;40.64;17.56;98707.81;5092912;28;20028;-48
2023/09/10 11:26:13;;;;;;;5.00;3.70;;;;;;;40.78;17.22;98704.22;5092667;28;20032;-49
2023/09/10 11:28:40;;;;;;;5.05;3.78;;;;;;;40.86;17.16;98705.72;5091533;28;20027;-49